Time;durP1;ratioP1;P1;durP2;ratioP2;P2;SDS_P1;SDS_P2;PMS_P1;PMS_P2;Temp;Humidity;BMP_temperature;BMP_pressure;BME280_temperature;BME280_humidity;BME280_pressure;Samples;Min_cycle;Max_cycle;Signal;HPM_P1;HPM_P2
2022/06/01 00:00:42;;;;;;;11.35;8.38;;;;;;;18.86;76.07;100071.13;5066735;28;20040;-31
2022/06/01 00:03:08;;;;;;;13.15;8.80;;;;;;;18.91;77.05;100083.00;5066600;28;20028;-29
2022/06/01 00:05:35;;;;;;;10.20;8.40;;;;;;;18.78;77.12;100071.66;5067047;28;20024;-31
2022/06/01 00:08:00;;;;;;;14.38;7.85;;;;;;;18.84;76.67;100057.09;5048818;28;20075;-29
2022/06/01 00:10:27;;;;;;;13.57;8.50;;;;;;;19.00;76.33;100055.16;5066773;28;20064;-30
2022/06/01 00:12:54;;;;;;;12.00;8.50;;;;;;;19.00;75.68;100049.75;5066743;28;20037;-30
2022/06/01 00:15:21;;;;;;;12.02;7.90;;;;;;;19.18;74.73;100066.44;5048451;28;20645;-31
2022/06/01 00:17:47;;;;;;;12.52;8.45;;;;;;;19.25;75.27;100067.75;5066409;28;20040;-32
2022/06/01 00:20:14;;;;;;;10.90;6.88;;;;;;;19.20;75.72;100061.56;5066454;28;20028;-29
2022/06/01 00:22:40;;;;;;;14.35;7.68;;;;;;;19.13;74.79;100066.47;5066708;28;20036;-34
2022/06/01 00:25:07;;;;;;;13.38;8.13;;;;;;;19.24;74.83;100052.63;5048394;28;20086;-34
2022/06/01 00:27:34;;;;;;;11.00;8.15;;;;;;;19.28;75.70;100071.81;5048515;28;20025;-29
2022/06/01 00:29:59;;;;;;;14.38;7.78;;;;;;;19.21;75.59;100055.88;5066167;28;20483;-29
2022/06/01 00:32:25;;;;;;;11.95;7.82;;;;;;;19.11;75.08;100061.34;5066522;28;20029;-32
2022/06/01 00:34:50;;;;;;;10.65;7.28;;;;;;;19.04;76.12;100050.00;5066283;28;20056;-29
2022/06/01 00:37:17;;;;;;;14.10;8.57;;;;;;;18.93;74.78;100053.81;5066546;28;20476;-32
2022/06/01 00:39:44;;;;;;;15.13;8.02;;;;;;;19.02;75.70;100044.06;5048147;28;20035;-31
2022/06/01 00:42:12;;;;;;;12.48;8.38;;;;;;;19.00;75.72;100062.44;5066186;28;20440;-29
2022/06/01 00:44:38;;;;;;;14.35;8.38;;;;;;;18.94;75.06;100031.09;5050099;28;20117;-33
2022/06/01 00:47:04;;;;;;;12.63;9.15;;;;;;;19.09;75.57;100058.09;5070279;28;20025;-30
2022/06/01 00:49:31;;;;;;;11.98;8.52;;;;;;;18.91;76.26;100050.59;5052246;28;20036;-31
2022/06/01 00:51:57;;;;;;;12.50;8.68;;;;;;;18.92;76.16;100044.09;5070003;28;20033;-32
2022/06/01 00:54:22;;;;;;;12.00;8.55;;;;;;;18.64;76.91;100028.19;5070507;28;20036;-30
2022/06/01 00:56:53;;;;;;;12.15;9.07;;;;;;;18.47;78.22;100033.91;5070376;28;20059;-29
2022/06/01 00:59:22;;;;;;;13.18;9.48;;;;;;;18.61;78.91;100052.22;5069797;28;20064;-31
2022/06/01 01:01:51;;;;;;;15.35;9.35;;;;;;;18.25;80.17;100044.16;5069783;28;20582;-29
2022/06/01 01:04:17;;;;;;;11.50;8.73;;;;;;;18.48;79.43;100038.19;5069569;28;20094;-32
2022/06/01 01:06:46;;;;;;;10.82;7.78;;;;;;;18.42;78.30;100041.19;5069794;28;20078;-31
2022/06/01 01:09:12;;;;;;;11.98;8.27;;;;;;;18.16;79.23;100040.38;5069519;28;20119;-31
2022/06/01 01:11:54;;;;;;;13.30;8.60;;;;;;;17.91;81.22;100028.50;5051215;28;20035;-33
2022/06/01 01:14:29;;;;;;;17.33;9.90;;;;;;;17.92;80.07;100024.72;5069884;28;20090;-31
2022/06/01 01:16:54;;;;;;;13.93;9.30;;;;;;;18.10;79.59;100041.47;5051541;28;20035;-29
2022/06/01 01:19:23;;;;;;;13.60;8.40;;;;;;;18.40;78.30;100036.06;5069397;28;20140;-29
2022/06/01 01:21:48;;;;;;;11.90;8.43;;;;;;;18.67;77.17;100034.94;5069320;28;20039;-31
2022/06/01 01:24:27;;;;;;;13.82;8.77;;;;;;;18.68;77.26;100050.06;5050934;28;20032;-33
2022/06/01 01:26:56;;;;;;;13.00;8.30;;;;;;;18.71;78.22;100035.19;5051284;28;20036;-29
2022/06/01 01:29:38;;;;;;;14.80;8.65;;;;;;;18.59;77.91;100036.31;5069151;28;20038;-31
2022/06/01 01:32:06;;;;;;;12.00;7.88;;;;;;;18.41;78.82;100037.69;5051041;28;20028;-29
2022/06/01 01:34:35;;;;;;;14.02;8.80;;;;;;;18.43;79.00;100027.41;5068678;28;20060;-30
2022/06/01 01:37:04;;;;;;;14.85;9.00;;;;;;;18.58;76.60;100004.16;5067898;28;20484;-30
2022/06/01 01:39:33;;;;;;;14.88;8.35;;;;;;;18.68;77.25;100021.16;5069142;28;20620;-30
2022/06/01 01:41:59;;;;;;;13.02;8.63;;;;;;;18.78;77.42;100028.44;5068693;28;20040;-30
2022/06/01 01:44:27;;;;;;;16.50;9.43;;;;;;;19.00;76.66;100032.72;5068804;28;20029;-34
2022/06/01 01:46:53;;;;;;;;;;;;;;;19.15;74.96;100034.56;5069378;28;20054;-30
2022/06/01 01:49:22;;;;;;;14.35;9.35;;;;;;;18.59;76.41;100006.59;5068859;28;19913;-32
2022/06/01 01:51:49;;;;;;;15.50;9.30;;;;;;;18.86;76.33;100033.31;5068720;28;20036;-33
2022/06/01 01:54:23;;;;;;;13.73;9.00;;;;;;;18.94;75.92;100034.63;5068874;28;20564;-32
2022/06/01 01:57:17;;;;;;;12.77;8.65;;;;;;;19.20;75.08;100048.84;5068049;28;20056;-30
2022/06/01 01:59:55;;;;;;;15.38;8.20;;;;;;;18.96;75.94;100031.63;5068382;28;20050;-33
2022/06/01 02:02:55;;;;;;;15.00;8.57;;;;;;;18.81;76.17;100046.81;5068761;28;20074;-30
2022/06/01 02:08:27;;;;;;;13.55;8.80;;;;;;;18.87;76.16;100044.91;5068469;28;20044;-29
2022/06/01 02:13:44;;;;;;;17.17;8.70;;;;;;;18.65;77.11;100015.47;5068403;28;20047;-29
2022/06/01 02:16:09;;;;;;;12.68;8.68;;;;;;;19.06;76.34;100047.81;5068355;28;20100;-29
2022/06/01 02:18:41;;;;;;;15.05;8.30;;;;;;;18.12;76.23;100050.09;5068102;28;20035;-34
2022/06/01 02:21:13;;;;;;;12.52;7.97;;;;;;;18.18;78.60;100041.72;5068371;28;20082;-32
2022/06/01 02:23:39;;;;;;;11.38;8.27;;;;;;;18.38;77.42;100049.00;5068188;28;20039;-30
2022/06/01 02:26:05;;;;;;;18.38;9.15;;;;;;;18.21;77.11;100064.69;5068175;28;20024;-29
2022/06/01 02:28:32;;;;;;;13.20;9.18;;;;;;;17.94;77.55;100049.56;5068494;28;20064;-31
2022/06/01 02:31:00;;;;;;;16.70;9.95;;;;;;;17.76;78.82;100058.13;5067948;28;20811;-31
2022/06/01 02:33:32;;;;;;;;;;;;;;;17.93;79.54;100055.22;5068447;28;20036;-29
2022/06/01 02:36:00;;;;;;;14.55;10.50;;;;;;;17.71;79.22;100050.81;5067933;28;19981;-31
2022/06/01 02:38:33;;;;;;;13.70;8.65;;;;;;;17.94;79.01;100049.56;5067827;28;20031;-32
2022/06/01 02:41:01;;;;;;;17.42;9.85;;;;;;;18.22;78.85;100042.00;5049915;28;20043;-29
2022/06/01 02:43:26;;;;;;;;;;;;;;;17.90;78.37;100053.03;5049971;28;20044;-29
2022/06/01 02:45:52;;;;;;;13.98;9.23;;;;;;;18.28;78.22;100059.81;5067862;28;20283;-29
2022/06/01 02:48:18;;;;;;;13.25;9.18;;;;;;;17.89;76.81;100051.44;5067964;28;20039;-29
2022/06/01 02:50:43;;;;;;;20.85;9.98;;;;;;;17.87;77.92;100057.88;5068251;28;20403;-32
2022/06/01 02:53:09;;;;;;;15.27;8.20;;;;;;;18.11;78.96;100064.69;5067523;28;20078;-30
2022/06/01 02:55:35;;;;;;;13.02;8.70;;;;;;;18.06;76.91;100068.16;5067704;28;20086;-32
2022/06/01 02:58:01;;;;;;;13.98;8.40;;;;;;;18.16;78.18;100068.16;5067178;28;20723;-29
2022/06/01 03:00:37;;;;;;;14.13;8.90;;;;;;;18.38;78.33;100062.50;5067319;28;20385;-34
2022/06/01 03:03:05;;;;;;;11.98;8.43;;;;;;;18.00;77.11;100048.47;5068009;28;20032;-31
2022/06/01 03:05:33;;;;;;;15.65;8.70;;;;;;;18.13;78.77;100057.13;5067646;28;20036;-29
2022/06/01 03:08:00;;;;;;;16.13;8.70;;;;;;;18.24;79.04;100047.94;5067185;28;20162;-31
2022/06/01 03:10:26;;;;;;;27.38;9.00;;;;;;;18.30;76.31;100056.84;5049186;28;20590;-29
2022/06/01 03:12:53;;;;;;;16.40;8.32;;;;;;;18.50;78.77;100050.63;5049337;28;20534;-30
2022/06/01 03:15:20;;;;;;;17.23;8.80;;;;;;;18.70;76.63;100039.00;5067230;28;20025;-30
2022/06/01 03:17:46;;;;;;;15.93;8.48;;;;;;;19.06;75.62;100048.66;5049060;28;20028;-29
2022/06/01 03:20:18;;;;;;;15.90;8.32;;;;;;;18.82;75.83;100043.03;5067130;28;20037;-32
2022/06/01 03:22:44;;;;;;;20.05;9.55;;;;;;;18.34;78.21;100053.34;5067214;28;20032;-30
2022/06/01 03:25:13;;;;;;;18.63;9.07;;;;;;;18.15;77.87;100009.88;5048669;28;20036;-29
2022/06/01 03:27:39;;;;;;;16.33;8.57;;;;;;;18.43;77.56;100040.91;5048917;28;20052;-30
2022/06/01 03:30:07;;;;;;;15.40;8.20;;;;;;;18.40;79.02;100057.66;5065714;28;20037;-31
2022/06/01 03:32:32;;;;;;;;;;;;;;;18.21;78.11;100051.19;5049317;28;20049;-32
2022/06/01 03:34:58;;;;;;;23.35;8.80;;;;;;;17.91;79.32;100033.88;5066906;28;19966;-32
2022/06/01 03:37:23;;;;;;;21.92;8.88;;;;;;;18.16;79.27;100045.78;5066707;28;20028;-29
2022/06/01 03:39:50;;;;;;;12.77;7.22;;;;;;;18.29;77.64;100056.06;5066551;28;20057;-29
2022/06/01 03:42:15;;;;;;;14.43;7.38;;;;;;;18.46;76.88;100069.25;5067470;28;20020;-31
2022/06/01 03:47:25;;;;;;;12.85;6.43;;;;;;;18.53;75.69;100072.50;5067218;28;20130;-29
2022/06/01 03:49:50;;;;;;;12.60;6.65;;;;;;;18.59;76.32;100067.91;5066667;28;20582;-34
2022/06/01 03:52:16;;;;;;;11.70;6.38;;;;;;;18.76;75.09;100068.41;5048447;28;20028;-29
2022/06/01 03:54:41;;;;;;;9.90;5.60;;;;;;;18.66;75.52;100071.13;5066905;28;20506;-31
2022/06/01 03:57:07;;;;;;;9.52;5.50;;;;;;;18.93;75.15;100081.66;5048654;28;20641;-32
2022/06/01 03:59:34;;;;;;;10.75;6.10;;;;;;;18.73;75.08;100066.25;5066736;28;20029;-29
2022/06/01 04:02:01;;;;;;;10.15;6.13;;;;;;;18.61;76.33;100063.88;5066719;28;20028;-32
2022/06/01 04:04:27;;;;;;;25.75;7.05;;;;;;;18.99;75.53;100085.16;5066703;28;20029;-30
2022/06/01 04:06:52;;;;;;;17.75;6.65;;;;;;;19.04;75.84;100066.22;5066518;28;20039;-30
2022/06/01 04:09:18;;;;;;;12.13;5.55;;;;;;;18.83;75.80;100082.47;5066669;28;20840;-29
2022/06/01 04:11:43;;;;;;;12.40;5.70;;;;;;;18.88;76.45;100065.47;5066640;28;20461;-32
2022/06/01 04:14:09;;;;;;;13.73;5.00;;;;;;;19.00;75.27;100086.75;5066799;28;20056;-29
2022/06/01 04:16:34;;;;;;;9.43;4.70;;;;;;;18.88;74.88;100073.56;5048561;28;20399;-34
2022/06/01 04:19:00;;;;;;;14.98;5.22;;;;;;;18.97;74.98;100071.09;5067591;28;20051;-34
2022/06/01 04:21:30;;;;;;;8.98;4.75;;;;;;;19.14;74.75;100087.00;5070617;28;20028;-31
2022/06/01 04:24:00;;;;;;;10.80;4.30;;;;;;;19.09;74.20;100082.41;5070856;28;20078;-31
2022/06/01 04:26:25;;;;;;;12.23;4.55;;;;;;;19.10;74.21;100080.53;5052573;28;20187;-30
2022/06/01 04:28:51;;;;;;;12.38;4.82;;;;;;;19.04;74.96;100074.31;5052427;28;20561;-32
2022/06/01 04:31:17;;;;;;;10.13;4.50;;;;;;;19.15;74.23;100061.59;5070433;28;20028;-34
2022/06/01 04:33:43;;;;;;;18.92;5.10;;;;;;;19.30;74.25;100079.66;5070075;28;20051;-29
2022/06/01 04:36:09;;;;;;;10.40;4.53;;;;;;;19.36;73.61;100086.66;5070482;28;20048;-29
2022/06/01 04:38:34;;;;;;;7.93;4.70;;;;;;;19.33;73.46;100081.78;5070494;28;20029;-29
2022/06/01 04:41:00;;;;;;;8.60;4.47;;;;;;;19.48;73.18;100097.97;5070207;28;20051;-32
2022/06/01 04:43:25;;;;;;;10.63;4.95;;;;;;;19.27;71.43;100073.72;5070358;28;20029;-30
2022/06/01 04:45:52;;;;;;;12.20;4.53;;;;;;;19.24;72.56;100074.25;5051851;28;20431;-35
2022/06/01 04:48:18;;;;;;;9.80;4.70;;;;;;;19.41;72.10;100087.44;5070389;28;20039;-31
2022/06/01 04:50:44;;;;;;;8.43;4.60;;;;;;;19.43;73.10;100090.69;5069968;28;20039;-29
2022/06/01 04:53:12;;;;;;;8.82;4.93;;;;;;;19.39;72.16;100075.28;5052005;28;20036;-31
2022/06/01 04:55:38;;;;;;;9.32;4.97;;;;;;;19.48;72.59;100098.75;5051574;28;20021;-32
2022/06/01 04:58:03;;;;;;;6.88;4.35;;;;;;;19.30;71.67;100075.03;5068470;28;20110;-30
2022/06/01 05:00:29;;;;;;;7.20;4.60;;;;;;;19.72;72.35;100081.91;5069901;28;20024;-29
2022/06/01 05:02:54;;;;;;;6.60;4.43;;;;;;;19.96;70.54;100086.63;5051722;28;20476;-30
2022/06/01 05:05:20;;;;;;;10.73;4.60;;;;;;;20.09;69.53;100090.63;5070018;28;20581;-29
2022/06/01 05:07:45;;;;;;;8.38;4.63;;;;;;;20.06;68.39;100081.97;5035169;28;20082;-30
2022/06/01 05:10:10;;;;;;;7.15;4.30;;;;;;;20.02;68.57;100093.63;5051689;28;20498;-34
2022/06/01 05:12:36;;;;;;;9.30;4.18;;;;;;;20.08;67.45;100108.75;5069712;28;20044;-30
2022/06/01 05:15:02;;;;;;;9.23;4.10;;;;;;;20.17;68.93;100093.53;5069612;28;20028;-29
2022/06/01 05:17:31;;;;;;;7.53;3.78;;;;;;;20.33;68.39;100096.94;5069603;28;20032;-32
2022/06/01 05:19:57;;;;;;;6.72;3.80;;;;;;;20.53;66.55;100105.97;5069225;28;20031;-32
2022/06/01 05:22:22;;;;;;;8.48;4.40;;;;;;;20.44;67.39;100103.88;5069805;28;20060;-33
2022/06/01 05:24:48;;;;;;;7.70;3.97;;;;;;;20.36;66.84;100103.69;5069438;28;20028;-32
2022/06/01 05:27:13;;;;;;;6.68;3.90;;;;;;;20.46;65.75;100100.88;5069592;28;20032;-31
2022/06/01 05:29:39;;;;;;;7.40;4.25;;;;;;;20.66;66.52;100118.91;5068877;28;20103;-32
2022/06/01 05:32:04;;;;;;;7.28;3.67;;;;;;;20.79;65.70;100103.88;5068256;28;20028;-30
2022/06/01 05:34:30;;;;;;;8.82;4.05;;;;;;;20.90;64.85;100123.56;5050666;28;20117;-30
2022/06/01 05:36:55;;;;;;;6.60;4.20;;;;;;;20.84;65.55;100106.53;5069374;28;20024;-30
2022/06/01 05:39:21;;;;;;;6.60;3.60;;;;;;;20.82;66.11;100109.53;5069353;28;20032;-31
2022/06/01 05:41:46;;;;;;;7.43;3.40;;;;;;;20.99;65.70;100116.41;5050725;28;20040;-35
2022/06/01 05:44:13;;;;;;;6.43;3.63;;;;;;;21.14;64.69;100121.66;5069093;28;20441;-30
2022/06/01 05:46:38;;;;;;;8.10;4.13;;;;;;;21.05;64.73;100109.84;5068697;28;20842;-31
2022/06/01 05:49:04;;;;;;;7.63;3.65;;;;;;;21.22;63.30;100118.31;5050717;28;20145;-33
2022/06/01 05:51:29;;;;;;;6.53;3.42;;;;;;;21.10;62.68;100112.50;5069069;28;20100;-31
2022/06/01 05:53:55;;;;;;;5.97;3.80;;;;;;;21.34;62.70;100103.56;5068525;28;20051;-30
2022/06/01 05:56:20;;;;;;;7.88;3.70;;;;;;;21.53;62.33;100111.75;5068731;28;20051;-30
2022/06/01 05:58:48;;;;;;;8.15;3.65;;;;;;;21.61;62.37;100119.25;5068682;28;20029;-31
2022/06/01 06:01:14;;;;;;;6.00;3.37;;;;;;;22.00;61.57;100127.13;5068641;28;20028;-33
2022/06/01 06:03:39;;;;;;;9.00;4.13;;;;;;;21.86;60.57;100118.09;5068172;28;20385;-31
2022/06/01 06:06:17;;;;;;;7.43;3.63;;;;;;;21.85;60.66;100120.00;5068431;28;20111;-29
2022/06/01 06:08:42;;;;;;;7.97;4.15;;;;;;;21.98;59.27;100110.31;5068570;28;20047;-30
2022/06/01 06:11:08;;;;;;;8.05;3.50;;;;;;;22.22;58.43;100117.59;5068442;28;20067;-32
2022/06/01 06:13:36;;;;;;;7.15;3.60;;;;;;;22.01;60.22;100109.75;5068310;28;20560;-29
2022/06/01 06:16:03;;;;;;;6.53;3.42;;;;;;;22.20;57.97;100104.28;5068179;28;20043;-30
2022/06/01 06:18:29;;;;;;;6.93;3.53;;;;;;;22.34;59.16;100117.97;5068599;28;20565;-33
2022/06/01 06:20:55;;;;;;;9.10;3.53;;;;;;;22.33;58.01;100116.38;5068150;28;20028;-33
2022/06/01 06:23:21;;;;;;;11.45;4.45;;;;;;;22.38;58.50;100121.72;5068303;28;20036;-29
2022/06/01 06:25:47;;;;;;;8.50;3.67;;;;;;;22.53;57.67;100114.41;5067832;28;20031;-30
2022/06/01 06:28:12;;;;;;;8.27;3.60;;;;;;;22.78;57.30;100113.16;5068560;28;20032;-31
2022/06/01 06:30:38;;;;;;;6.65;3.55;;;;;;;23.11;57.21;100122.09;5068155;28;20016;-30
2022/06/01 06:33:05;;;;;;;7.97;3.67;;;;;;;23.12;56.12;100106.59;5049851;28;20036;-30
2022/06/01 06:35:31;;;;;;;15.88;4.40;;;;;;;23.35;57.31;100115.66;5067783;28;20148;-33
2022/06/01 06:37:56;;;;;;;10.25;3.85;;;;;;;23.25;56.62;100120.19;5067639;28;20095;-29
2022/06/01 06:40:22;;;;;;;7.43;3.70;;;;;;;23.45;56.71;100118.16;5066659;28;20737;-33
2022/06/01 06:42:48;;;;;;;8.05;3.70;;;;;;;23.42;55.52;100110.63;5066039;28;20063;-32
2022/06/01 06:45:13;;;;;;;6.47;3.63;;;;;;;23.16;55.19;100113.84;5067824;28;20074;-30
2022/06/01 06:47:40;;;;;;;10.27;3.95;;;;;;;23.36;55.41;100122.72;5067405;28;20035;-30
2022/06/01 06:50:08;;;;;;;7.27;3.60;;;;;;;23.26;57.09;100102.75;5067799;28;20059;-31
2022/06/01 06:52:34;;;;;;;7.68;3.70;;;;;;;23.47;55.86;100102.31;5049289;28;20148;-33
2022/06/01 06:55:00;;;;;;;9.52;3.67;;;;;;;23.61;56.49;100113.22;5067558;28;20403;-32
2022/06/01 06:57:25;;;;;;;6.70;4.05;;;;;;;23.98;55.92;100105.88;5067415;28;20481;-33
2022/06/01 06:59:51;;;;;;;10.45;4.10;;;;;;;24.23;54.88;100104.47;5067219;28;20025;-30
2022/06/01 07:02:16;;;;;;;5.18;3.85;;;;;;;24.04;54.82;100094.56;5067449;28;20076;-35
2022/06/01 07:04:46;;;;;;;8.93;4.35;;;;;;;23.91;55.02;100105.53;5049516;28;20032;-29
2022/06/01 07:07:13;;;;;;;7.57;3.90;;;;;;;23.95;53.72;100101.88;5049568;28;20111;-31
2022/06/01 07:09:38;;;;;;;9.00;4.03;;;;;;;24.33;55.31;100101.50;5049100;28;20152;-30
2022/06/01 07:12:04;;;;;;;6.72;3.70;;;;;;;24.49;53.63;100101.13;5067250;28;20535;-29
2022/06/01 07:14:30;;;;;;;7.60;3.72;;;;;;;24.16;53.44;100091.28;5067548;28;20082;-32
2022/06/01 07:16:59;;;;;;;6.10;3.92;;;;;;;24.31;53.26;100114.63;5067104;28;20028;-30
2022/06/01 07:19:26;;;;;;;7.13;3.58;;;;;;;24.51;51.42;100112.56;5066483;28;20031;-33
2022/06/01 07:21:51;;;;;;;28.30;5.43;;;;;;;24.82;51.06;100101.66;5048794;28;20558;-32
2022/06/01 07:24:17;;;;;;;11.52;3.53;;;;;;;24.95;50.70;100116.34;5067060;28;20028;-33
2022/06/01 07:26:44;;;;;;;7.15;3.75;;;;;;;24.92;50.70;100095.13;5066943;28;20032;-34
2022/06/01 07:29:10;;;;;;;6.88;3.88;;;;;;;25.07;51.64;100097.47;5048964;28;20036;-32
2022/06/01 07:31:37;;;;;;;9.77;3.92;;;;;;;25.35;50.62;100102.69;5066455;28;20041;-33
2022/06/01 07:34:03;;;;;;;7.00;3.60;;;;;;;25.55;51.42;100104.84;5066863;28;20064;-34
2022/06/01 07:36:30;;;;;;;7.53;3.90;;;;;;;25.16;49.86;100081.09;5045243;28;20493;-29
2022/06/01 07:44:34;;;;;;;5.97;3.70;;;;;;;25.82;49.20;100089.28;5027187;28;20095;-31
2022/06/01 07:47:00;;;;;;;8.55;4.15;;;;;;;25.74;48.87;100070.97;5025974;28;20696;-30
2022/06/01 07:49:26;;;;;;;7.57;3.78;;;;;;;25.82;48.84;100078.34;5026677;28;20511;-33
2022/06/01 07:51:53;;;;;;;8.07;4.10;;;;;;;26.33;48.60;100082.19;5025022;28;20088;-34
2022/06/01 07:54:19;;;;;;;5.80;3.50;;;;;;;26.49;47.30;100095.38;5024979;28;20030;-32
2022/06/01 07:56:45;;;;;;;6.50;3.65;;;;;;;26.37;46.86;100076.91;5026861;28;20033;-30
2022/06/01 07:59:11;;;;;;;6.72;3.80;;;;;;;26.43;48.16;100087.34;5026872;28;20056;-33
2022/06/01 08:01:37;;;;;;;8.68;3.75;;;;;;;26.59;47.53;100089.59;5025267;28;20413;-31
2022/06/01 08:04:04;;;;;;;6.03;3.47;;;;;;;26.23;46.81;100082.53;5026707;28;20033;-33
2022/06/01 08:06:32;;;;;;;7.82;3.88;;;;;;;26.53;47.19;100090.88;5025053;28;20032;-32
2022/06/01 08:08:57;;;;;;;7.55;3.75;;;;;;;26.52;46.40;100081.03;5025356;28;20504;-30
2022/06/01 08:13:06;;;;;;;6.97;3.92;;;;;;;26.83;46.51;100081.63;5025264;28;20045;-31
2022/06/01 08:14:11;;;;;;;7.07;3.78;;;;;;;26.92;47.46;100083.53;5026658;28;20037;-35
2022/06/01 08:16:38;;;;;;;7.57;3.95;;;;;;;27.06;46.46;100075.91;5024867;28;20117;-34
2022/06/01 08:19:05;;;;;;;7.80;3.70;;;;;;;27.29;44.46;100098.34;5025557;28;20596;-30
2022/06/01 08:21:31;;;;;;;5.97;3.33;;;;;;;27.43;45.23;100096.16;5008799;28;20037;-29
2022/06/01 08:23:57;;;;;;;7.88;3.33;;;;;;;27.13;44.30;100098.06;5024912;28;20033;-32
2022/06/01 08:26:22;;;;;;;7.03;3.03;;;;;;;26.97;43.87;100080.59;5026465;28;20033;-32
2022/06/01 08:28:47;;;;;;;5.47;2.95;;;;;;;27.24;42.53;100093.88;5024854;28;20029;-35
2022/06/01 08:31:14;;;;;;;6.90;3.95;;;;;;;27.55;44.51;100089.97;5026305;28;20033;-35
2022/06/01 08:33:39;;;;;;;6.38;3.22;;;;;;;27.79;43.56;100088.53;5026486;28;20041;-29
2022/06/01 08:36:05;;;;;;;5.93;3.60;;;;;;;27.95;43.22;100095.03;5042295;28;20115;-30
2022/06/01 08:38:30;;;;;;;5.40;3.47;;;;;;;27.90;43.47;100087.00;5046303;28;20059;-32
2022/06/01 08:41:01;;;;;;;6.30;3.45;;;;;;;27.87;43.72;100071.25;5046366;28;20029;-30
2022/06/01 08:43:35;;;;;;;8.73;3.60;;;;;;;27.38;44.17;100070.91;5011663;28;20037;-35
2022/06/01 08:46:02;;;;;;;7.22;3.15;;;;;;;27.89;43.87;100060.75;5046063;28;20036;-30
2022/06/01 08:48:40;;;;;;;7.32;4.38;;;;;;;28.19;43.28;100079.81;5044760;28;20119;-30
2022/06/01 08:51:07;;;;;;;5.07;2.88;;;;;;;28.49;43.38;100080.47;5028282;28;20029;-31
2022/06/01 08:53:34;;;;;;;7.45;2.78;;;;;;;28.59;38.70;100071.06;5044676;28;20029;-30
2022/06/01 08:56:09;;;;;;;5.18;2.90;;;;;;;28.48;39.27;100072.59;5045975;28;20028;-36
2022/06/01 08:58:53;;;;;;;7.05;3.03;;;;;;;29.09;41.11;100083.66;5045918;28;20051;-33
2022/06/01 09:02:05;;;;;;;6.72;3.20;;;;;;;29.04;40.75;100070.97;5044818;28;20111;-32
2022/06/01 09:04:51;;;;;;;5.57;2.92;;;;;;;29.06;38.13;100065.16;5046263;28;20104;-33
2022/06/01 09:07:26;;;;;;;6.95;3.08;;;;;;;29.03;38.21;100072.13;5031799;28;20025;-31
2022/06/01 09:10:24;;;;;;;8.15;3.35;;;;;;;29.12;38.06;100080.28;5049567;28;20065;-30
2022/06/01 09:12:58;;;;;;;5.78;3.05;;;;;;;29.07;38.29;100068.69;5048318;28;20064;-30
2022/06/01 09:15:26;;;;;;;5.97;3.15;;;;;;;28.95;40.01;100062.06;5048220;28;20029;-32
2022/06/01 09:17:54;;;;;;;5.80;3.00;;;;;;;29.09;40.11;100036.19;5031494;28;20025;-32
2022/06/01 09:23:11;;;;;;;6.07;2.78;;;;;;;29.43;38.69;100056.91;5049532;28;20051;-31
2022/06/01 09:25:38;;;;;;;6.10;3.22;;;;;;;29.41;37.77;100064.69;5049152;28;20028;-34
2022/06/01 09:28:25;;;;;;;7.43;3.33;;;;;;;29.78;39.64;100061.88;5031401;28;20076;-31
2022/06/01 09:31:22;;;;;;;5.63;3.40;;;;;;;29.34;37.33;100067.19;5047679;28;20112;-31
2022/06/01 09:33:48;;;;;;;6.25;3.05;;;;;;;29.75;35.61;100059.81;5048747;28;20033;-37
2022/06/01 09:36:28;;;;;;;5.05;3.05;;;;;;;29.52;36.89;100059.50;5047711;28;20122;-33
2022/06/01 09:38:55;;;;;;;6.60;2.80;;;;;;;29.74;38.46;100066.47;5049197;28;20515;-30
2022/06/01 09:41:21;;;;;;;11.25;2.88;;;;;;;29.76;35.74;100058.66;5047908;28;20032;-29
2022/06/01 09:43:58;;;;;;;6.13;2.80;;;;;;;29.92;35.92;100056.78;5048737;28;20021;-31
2022/06/01 09:46:54;;;;;;;5.93;3.10;;;;;;;30.12;34.92;100059.66;5030839;28;20082;-33
2022/06/01 09:49:33;;;;;;;7.77;2.67;;;;;;;30.38;34.75;100060.03;5048391;28;20049;-34
2022/06/01 09:52:07;;;;;;;6.05;2.75;;;;;;;30.42;36.91;100058.19;5030804;28;20064;-31
2022/06/01 09:54:37;;;;;;;7.75;2.70;;;;;;;30.58;34.30;100043.63;5048556;28;20083;-32
2022/06/01 09:57:18;;;;;;;4.57;2.78;;;;;;;30.87;34.08;100052.56;5030532;28;20463;-31
2022/06/01 10:08:19;;;;;;;5.65;2.53;;;;;;;31.24;33.30;100048.38;5048614;28;20039;-34
2022/06/01 10:10:58;;;;;;;6.70;2.60;;;;;;;31.40;33.65;100044.78;5048669;28;20025;-31
2022/06/01 10:13:49;;;;;;;4.10;2.40;;;;;;;31.61;33.50;100033.44;5048123;28;20112;-37
2022/06/01 10:16:30;;;;;;;6.15;2.53;;;;;;;31.76;32.31;100034.53;5046584;28;20021;-33
2022/06/01 10:18:58;;;;;;;4.55;2.70;;;;;;;31.66;33.10;100035.13;5030324;28;20408;-32
2022/06/01 10:21:31;;;;;;;5.75;2.60;;;;;;;31.99;33.44;100021.63;5046923;28;20025;-31
2022/06/01 10:24:04;;;;;;;4.82;2.30;;;;;;;32.01;31.66;100030.31;5030103;28;20047;-30
2022/06/01 10:26:33;;;;;;;6.05;2.53;;;;;;;31.90;31.96;100021.03;5030428;28;20140;-36
2022/06/01 10:29:05;;;;;;;5.35;2.30;;;;;;;31.77;31.07;100025.91;5047002;28;20112;-30
2022/06/01 10:31:45;;;;;;;5.50;2.97;;;;;;;31.97;30.42;100009.31;5047085;28;20036;-31
2022/06/01 10:34:41;;;;;;;5.03;2.70;;;;;;;32.28;30.77;100024.09;5046523;28;20047;-35
2022/06/01 10:37:37;;;;;;;4.72;2.58;;;;;;;32.36;30.21;100023.06;5048347;28;20024;-30
2022/06/01 10:40:15;;;;;;;13.85;3.65;;;;;;;32.88;30.34;100015.28;5048146;28;20060;-33
2022/06/01 10:45:30;;;;;;;5.57;2.80;;;;;;;32.90;29.84;100007.41;5048174;28;20035;-30
2022/06/01 10:48:17;;;;;;;8.07;3.13;;;;;;;32.98;29.39;100009.91;5047651;28;20029;-34
2022/06/01 10:51:07;;;;;;;7.88;3.17;;;;;;;33.47;30.02;100018.47;5029938;28;20489;-30
2022/06/01 10:54:00;;;;;;;6.38;2.80;;;;;;;33.34;28.15;100015.16;5030033;28;20519;-30
2022/06/01 10:56:27;;;;;;;8.05;3.03;;;;;;;33.38;29.75;100013.22;5047798;28;20123;-31
2022/06/01 10:58:58;;;;;;;5.75;2.90;;;;;;;33.50;27.46;100012.22;5047626;28;20028;-30
2022/06/01 11:01:41;;;;;;;5.93;2.97;;;;;;;33.51;27.94;100022.91;5029445;28;20071;-30
2022/06/01 11:04:17;;;;;;;7.13;3.05;;;;;;;33.30;28.71;100009.56;5029855;28;20027;-33
2022/06/01 11:07:07;;;;;;;7.35;3.00;;;;;;;33.47;27.79;100012.94;5029718;28;20037;-34
2022/06/01 11:09:41;;;;;;;6.85;3.65;;;;;;;33.15;27.87;99997.53;5047786;28;20498;-32
2022/06/01 11:12:28;;;;;;;6.47;3.22;;;;;;;33.45;27.23;100010.56;5047511;28;20516;-31
2022/06/01 11:14:57;;;;;;;8.40;3.10;;;;;;;33.46;28.51;99997.53;5029235;28;20028;-30
2022/06/01 11:17:31;;;;;;;4.07;2.50;;;;;;;33.81;27.96;99986.91;5047155;28;20107;-30
2022/06/01 11:20:35;;;;;;;9.38;2.90;;;;;;;33.95;28.06;99999.31;5028904;28;20047;-30
2022/06/01 11:23:23;;;;;;;5.32;3.25;;;;;;;33.48;28.53;99987.69;5029478;28;20033;-37
2022/06/01 11:25:52;;;;;;;3.97;2.67;;;;;;;34.15;27.97;99986.09;5046995;28;20029;-32
2022/06/01 11:28:32;;;;;;;5.47;2.97;;;;;;;34.60;26.54;99990.44;5046100;28;20087;-34
2022/06/01 11:31:23;;;;;;;6.18;2.95;;;;;;;34.69;26.91;99987.34;5045801;28;20033;-31
2022/06/01 11:34:05;;;;;;;6.93;3.50;;;;;;;34.53;26.20;99984.03;5035608;28;20044;-32
2022/06/01 11:36:31;;;;;;;7.80;3.03;;;;;;;34.73;25.94;99982.63;5028719;28;20049;-32
2022/06/01 11:39:08;;;;;;;8.10;3.10;;;;;;;35.10;26.10;99978.91;5046630;28;20673;-34
2022/06/01 11:41:37;;;;;;;6.00;3.00;;;;;;;34.49;26.01;99986.00;5045557;28;20052;-31
2022/06/01 11:44:20;;;;;;;6.32;2.78;;;;;;;34.46;25.36;99978.47;5046693;28;20036;-32
2022/06/01 11:46:52;;;;;;;8.48;3.00;;;;;;;35.01;23.65;99986.78;5028587;28;20045;-34
2022/06/01 11:49:36;;;;;;;5.38;3.22;;;;;;;34.92;23.58;99991.84;5046565;28;20031;-32
2022/06/01 11:52:26;;;;;;;5.45;3.00;;;;;;;35.55;24.06;100000.91;5046845;28;20033;-32
2022/06/01 11:55:10;;;;;;;4.45;3.47;;;;;;;35.17;23.65;99995.59;5028821;28;20423;-34
2022/06/01 11:57:49;;;;;;;5.82;2.78;;;;;;;35.46;24.92;99990.19;5046664;28;20040;-32
2022/06/01 12:00:21;;;;;;;6.15;3.08;;;;;;;35.33;24.66;99997.25;5028780;28;20404;-30
2022/06/01 12:02:50;;;;;;;6.68;3.38;;;;;;;35.95;23.92;99977.69;5046697;28;20040;-34
2022/06/01 12:05:31;;;;;;;5.80;2.88;;;;;;;35.83;24.28;99964.19;5046617;28;20036;-30